Time;durP1;ratioP1;P1;durP2;ratioP2;P2;SDS_P1;SDS_P2;PMS_P1;PMS_P2;Temp;Humidity;BMP_temperature;BMP_pressure;BME280_temperature;BME280_humidity;BME280_pressure;Samples;Min_cycle;Max_cycle;Signal;HPM_P1;HPM_P2
2022/06/12 00:01:54;;;;;;;13.88;5.22;;;15.40;99.90;;;;;;5012202;28;20495;-67
2022/06/12 00:04:20;;;;;;;9.90;5.30;;;15.50;99.90;;;;;;5012038;28;20071;-67
2022/06/12 00:06:47;;;;;;;10.10;5.75;;;15.60;99.90;;;;;;5011686;28;20033;-67
2022/06/12 00:09:13;;;;;;;15.60;7.63;;;15.60;99.90;;;;;;5011880;28;20280;-67
2022/06/12 00:11:40;;;;;;;12.20;7.25;;;15.60;99.90;;;;;;5011657;28;20548;-67
2022/06/12 00:14:06;;;;;;;12.57;6.47;;;15.70;99.90;;;;;;5011655;28;20018;-67
2022/06/12 00:16:34;;;;;;;10.02;5.95;;;15.70;99.90;;;;;;5012002;28;20383;-67
2022/06/12 00:19:02;;;;;;;12.15;5.93;;;15.70;99.90;;;;;;5011667;28;20030;-67
2022/06/12 00:21:37;;;;;;;9.65;5.57;;;15.80;99.90;;;;;;4994060;28;20030;-67
2022/06/12 00:24:11;;;;;;;11.18;5.20;;;15.80;99.90;;;;;;5011532;28;20101;-67
2022/06/12 00:26:45;;;;;;;10.15;4.93;;;15.80;99.90;;;;;;5011472;28;20029;-67
2022/06/12 00:29:14;;;;;;;9.73;4.50;;;15.80;99.90;;;;;;5011140;28;20052;-67
2022/06/12 00:31:44;;;;;;;10.32;5.20;;;15.80;99.90;;;;;;4993854;28;20030;-67
2022/06/12 00:34:12;;;;;;;10.80;5.35;;;15.80;99.90;;;;;;5011312;28;20018;-67
2022/06/12 00:36:39;;;;;;;10.30;4.70;;;15.80;99.90;;;;;;5011311;28;20051;-67
2022/06/12 00:39:06;;;;;;;11.40;5.20;;;15.80;99.90;;;;;;5010929;28;20026;-67
2022/06/12 00:41:33;;;;;;;12.75;5.40;;;15.70;99.90;;;;;;5011205;28;20387;-67
2022/06/12 00:43:58;;;;;;;12.35;5.45;;;15.60;99.90;;;;;;4993664;28;20041;-67
2022/06/12 00:52:27;;;;;;;8.88;4.75;;;15.40;99.90;;;;;;5111321;27;20763;-67
2022/06/12 00:54:57;;;;;;;8.35;4.90;;;15.40;99.90;;;;;;5111526;28;20085;-67
2022/06/12 00:57:27;;;;;;;11.52;4.57;;;15.30;99.90;;;;;;5111130;28;20024;-67
2022/06/12 00:59:59;;;;;;;10.65;4.63;;;15.20;99.90;;;;;;5111253;28;20028;-67
2022/06/12 01:02:31;;;;;;;11.93;5.10;;;15.20;99.90;;;;;;5110917;28;20081;-67
2022/06/12 01:07:49;;;;;;;12.93;5.03;;;15.10;99.90;;;;;;5109661;28;20023;-67
2022/06/12 01:10:16;;;;;;;11.98;5.97;;;15.10;99.90;;;;;;5110644;28;20466;-67
2022/06/12 01:12:48;;;;;;;10.43;5.32;;;15.20;99.90;;;;;;5109813;28;20016;-67
2022/06/12 01:15:19;;;;;;;12.93;5.82;;;15.10;99.90;;;;;;5110914;28;20024;-67
2022/06/12 01:17:46;;;;;;;14.73;6.00;;;15.10;99.90;;;;;;5109439;28;20549;-67
2022/06/12 01:20:16;;;;;;;13.23;5.78;;;15.10;99.90;;;;;;5110578;28;20062;-67
2022/06/12 01:23:17;;;;;;;15.90;5.72;;;15.00;99.90;;;;;;5110596;28;20474;-67
2022/06/12 01:26:03;;;;;;;13.60;6.55;;;15.10;99.90;;;;;;5110498;28;20028;-67
2022/06/12 01:29:08;;;;;;;14.70;5.47;;;15.10;99.90;;;;;;5110785;28;20049;-67
2022/06/12 01:32:13;;;;;;;19.30;6.78;;;15.10;99.90;;;;;;5110475;28;20024;-67
2022/06/12 01:35:00;;;;;;;12.80;6.57;;;15.10;99.90;;;;;;5110466;28;20421;-67
2022/06/12 01:37:41;;;;;;;11.00;5.72;;;15.10;99.90;;;;;;5092645;28;20015;-67
2022/06/12 01:40:36;;;;;;;11.75;5.97;;;15.10;99.90;;;;;;5111237;28;20027;-67
2022/06/12 01:43:12;;;;;;;12.23;6.22;;;15.00;99.90;;;;;;5109459;28;20539;-67
2022/06/12 01:45:50;;;;;;;13.13;6.30;;;14.90;99.90;;;;;;5114029;28;20016;-66
2022/06/12 01:48:37;;;;;;;14.90;6.40;;;14.90;99.90;;;;;;5114266;28;20476;-67
2022/06/12 01:53:55;;;;;;;9.63;5.93;;;14.80;99.90;;;;;;5095824;28;20201;-67
2022/06/12 01:56:48;;;;;;;12.60;5.93;;;14.70;99.90;;;;;;5095993;28;20107;-67
2022/06/12 01:59:27;;;;;;;13.07;6.03;;;14.60;99.90;;;;;;5095286;28;20394;-67
2022/06/12 02:02:10;;;;;;;14.52;6.82;;;14.50;99.90;;;;;;5077171;28;20028;-67
2022/06/12 02:04:48;;;;;;;16.88;7.70;;;14.50;99.90;;;;;;5094061;28;20021;-67
2022/06/12 02:07:30;;;;;;;11.52;6.90;;;14.50;99.90;;;;;;5090774;28;20020;-67
2022/06/12 02:10:18;;;;;;;10.70;6.35;;;14.40;99.90;;;;;;5090962;28;20471;-67
2022/06/12 02:13:21;;;;;;;13.65;5.85;;;14.40;99.90;;;;;;5090701;28;20028;-67
2022/06/12 02:16:01;;;;;;;15.48;7.35;;;14.30;99.90;;;;;;5090203;28;20047;-68
2022/06/12 02:21:22;;;;;;;11.30;6.43;;;14.30;99.90;;;;;;5111342;27;20376;-67
2022/06/12 02:23:54;;;;;;;16.35;7.45;;;14.30;99.90;;;;;;5111372;28;20063;-67
2022/06/12 02:26:24;;;;;;;12.20;7.00;;;14.30;99.90;;;;;;5111318;28;20028;-67
2022/06/12 02:28:58;;;;;;;14.82;8.27;;;14.20;99.90;;;;;;5110913;28;20063;-67
2022/06/12 02:31:32;;;;;;;10.77;6.95;;;14.20;99.90;;;;;;5110129;28;20019;-67
2022/06/12 02:34:02;;;;;;;12.25;7.00;;;14.20;99.90;;;;;;5110840;28;20019;-67
2022/06/12 02:36:33;;;;;;;14.05;7.78;;;14.10;99.90;;;;;;5111047;28;20028;-67
2022/06/12 02:39:07;;;;;;;17.08;8.40;;;14.10;99.90;;;;;;5109535;28;20385;-67
2022/06/12 02:41:44;;;;;;;12.60;8.02;;;14.10;99.90;;;;;;5110983;28;20024;-67
2022/06/12 02:44:16;;;;;;;14.57;6.65;;;14.10;99.90;;;;;;5110677;28;20540;-67
2022/06/12 02:46:49;;;;;;;14.20;6.70;;;14.10;99.90;;;;;;5109529;28;20024;-67
2022/06/12 02:49:15;;;;;;;14.95;7.63;;;14.10;99.90;;;;;;5109732;28;20269;-67
2022/06/12 02:52:09;;;;;;;11.32;6.90;;;14.00;99.90;;;;;;5110510;28;20490;-67
2022/06/12 02:54:52;;;;;;;11.85;7.35;;;14.00;99.90;;;;;;5110424;28;20042;-66
2022/06/12 02:57:34;;;;;;;12.40;7.18;;;13.90;99.90;;;;;;5109367;28;20035;-67
2022/06/12 03:00:23;;;;;;;13.02;7.45;;;13.80;99.90;;;;;;5110337;28;20161;-67
2022/06/12 03:02:55;;;;;;;14.52;7.45;;;13.80;99.90;;;;;;5110444;28;20016;-67
2022/06/12 03:05:33;;;;;;;13.75;7.57;;;13.70;99.90;;;;;;5110581;28;20390;-67
2022/06/12 03:08:02;;;;;;;15.60;7.88;;;13.60;99.90;;;;;;5110489;28;20035;-67
2022/06/12 03:10:33;;;;;;;15.20;8.68;;;13.60;99.90;;;;;;5110423;28;20117;-67
2022/06/12 03:13:02;;;;;;;16.42;8.65;;;13.50;99.90;;;;;;5110345;28;20032;-67
2022/06/12 03:15:35;;;;;;;11.48;7.30;;;13.50;99.90;;;;;;5110465;28;20523;-67
2022/06/12 03:18:03;;;;;;;12.03;7.03;;;13.50;99.90;;;;;;5110117;28;20032;-67
2022/06/12 03:20:40;;;;;;;12.00;7.22;;;13.50;99.90;;;;;;5109713;28;20052;-66
2022/06/12 03:23:21;;;;;;;13.43;7.75;;;13.50;99.90;;;;;;5109980;28;20024;-66
2022/06/12 03:25:52;;;;;;;17.08;9.05;;;13.40;99.90;;;;;;5108728;28;20398;-66
2022/06/12 03:28:36;;;;;;;14.75;8.52;;;13.40;99.90;;;;;;5109958;28;20022;-66
2022/06/12 03:31:32;;;;;;;12.05;7.68;;;13.40;99.90;;;;;;5105206;28;20042;-66
2022/06/12 03:34:30;;;;;;;17.55;8.98;;;13.30;99.90;;;;;;5096177;28;20034;-65
2022/06/12 03:37:11;;;;;;;14.13;7.57;;;13.30;99.90;;;;;;5096336;28;20035;-65
2022/06/12 03:39:54;;;;;;;11.27;7.13;;;13.30;99.90;;;;;;5096258;28;20077;-66
2022/06/12 03:42:45;;;;;;;14.57;8.50;;;13.30;99.90;;;;;;5096288;28;20027;-65
2022/06/12 03:45:22;;;;;;;15.02;8.75;;;13.30;99.90;;;;;;5096066;28;20048;-66
2022/06/12 03:47:54;;;;;;;15.77;8.73;;;13.30;99.90;;;;;;5094926;28;20020;-66
2022/06/12 03:50:33;;;;;;;10.75;7.60;;;13.30;99.90;;;;;;5095911;28;20020;-66
2022/06/12 03:53:26;;;;;;;15.80;8.65;;;13.30;99.90;;;;;;5095856;28;20063;-66
2022/06/12 03:59:08;;;;;;;14.55;7.85;;;13.50;99.90;;;;;;5094618;28;20028;-67
2022/06/12 04:01:34;;;;;;;16.23;8.60;;;13.60;99.90;;;;;;5095926;28;20020;-67
2022/06/12 04:04:01;;;;;;;12.90;8.50;;;13.70;99.90;;;;;;5077555;28;20023;-66
2022/06/12 04:06:29;;;;;;;11.70;7.35;;;13.80;99.90;;;;;;5095929;28;20047;-64
2022/06/12 04:09:04;;;;;;;14.07;8.23;;;13.90;99.90;;;;;;5094651;28;20466;-64
2022/06/12 04:11:33;;;;;;;17.95;8.18;;;13.90;99.90;;;;;;5095699;28;20024;-66
2022/06/12 04:14:01;;;;;;;17.63;7.97;;;14.00;99.90;;;;;;5094656;28;20091;-65
2022/06/12 04:16:34;;;;;;;16.38;8.05;;;14.20;99.90;;;;;;5094545;28;20020;-66
2022/06/12 04:19:03;;;;;;;13.52;8.20;;;14.30;99.90;;;;;;5095120;28;20509;-66
2022/06/12 04:21:39;;;;;;;11.55;7.57;;;14.40;99.90;;;;;;5094361;28;20024;-66
2022/06/12 04:24:30;;;;;;;20.63;8.20;;;14.60;99.90;;;;;;5095469;28;20107;-66
2022/06/12 04:27:05;;;;;;;15.75;7.82;;;14.60;99.90;;;;;;5095065;28;20383;-66
2022/06/12 04:29:36;;;;;;;20.73;9.45;;;14.80;99.90;;;;;;5094008;28;20020;-66
2022/06/12 04:32:05;;;;;;;18.13;8.35;;;15.00;99.90;;;;;;5095304;28;20412;-66
2022/06/12 04:34:35;;;;;;;14.57;8.27;;;15.40;99.90;;;;;;5094975;28;20020;-66
2022/06/12 04:37:09;;;;;;;14.95;8.45;;;15.70;99.90;;;;;;5093867;28;20078;-66
2022/06/12 04:39:35;;;;;;;14.30;7.40;;;16.30;99.90;;;;;;5095133;28;20027;-66
2022/06/12 04:42:01;;;;;;;12.20;6.55;;;17.20;99.90;;;;;;5095017;28;20040;-66
2022/06/12 04:44:28;;;;;;;19.30;7.18;;;18.30;99.90;;;;;;5094342;28;20088;-67
2022/06/12 04:46:55;;;;;;;11.25;6.53;;;18.80;99.90;;;;;;5093753;28;20020;-67
2022/06/12 04:49:25;;;;;;;16.33;5.68;;;19.50;99.90;;;;;;5095093;28;20061;-67
2022/06/12 04:51:54;;;;;;;14.65;6.03;;;19.80;99.90;;;;;;5094975;28;20031;-67
2022/06/12 04:54:21;;;;;;;15.00;5.60;;;20.50;99.90;;;;;;5094708;28;20020;-67
2022/06/12 04:56:48;;;;;;;11.65;5.22;;;20.70;99.90;;;;;;5094907;28;20030;-67
2022/06/12 04:59:15;;;;;;;11.55;5.53;;;20.60;99.90;;;;;;5094511;28;20032;-67
2022/06/12 05:01:41;;;;;;;19.25;5.80;;;20.50;99.90;;;;;;5094817;28;20186;-67
2022/06/12 05:04:07;;;;;;;13.50;5.35;;;20.20;99.90;;;;;;5094483;28;20398;-67
2022/06/12 05:06:34;;;;;;;14.18;4.85;;;20.50;99.90;;;;;;5094308;28;20073;-67
2022/06/12 05:09:01;;;;;;;10.40;5.15;;;20.70;99.90;;;;;;5094657;28;20025;-67
2022/06/12 05:11:27;;;;;;;13.00;4.82;;;20.80;99.90;;;;;;5094534;28;20432;-67
2022/06/12 05:13:53;;;;;;;10.43;5.07;;;20.80;99.90;;;;;;5094496;28;20016;-68
2022/06/12 05:16:48;;;;;;;12.10;4.70;;;21.30;99.90;;;;;;5094067;28;20493;-67
2022/06/12 05:19:18;;;;;;;10.02;4.93;;;21.50;99.90;;;;;;5093745;28;20407;-67
2022/06/12 05:21:44;;;;;;;9.30;4.07;;;21.70;99.90;;;;;;5094379;28;20109;-67
2022/06/12 05:24:11;;;;;;;9.77;3.67;;;21.80;99.90;;;;;;5094157;28;20024;-67
2022/06/12 05:26:39;;;;;;;8.30;3.55;;;21.60;99.90;;;;;;5094049;28;20482;-67
2022/06/12 05:29:07;;;;;;;8.05;3.20;;;22.30;99.90;;;;;;5092807;28;20024;-68
2022/06/12 05:31:33;;;;;;;8.18;3.40;;;22.20;99.90;;;;;;5092724;28;20504;-67
2022/06/12 05:33:59;;;;;;;9.50;2.92;;;22.00;99.90;;;;;;5092961;28;20027;-67
2022/06/12 05:36:25;;;;;;;9.27;3.47;;;22.90;99.90;;;;;;5094135;28;20115;-68
2022/06/12 05:38:52;;;;;;;8.27;3.47;;;23.50;99.00;;;;;;5094240;28;20478;-67
2022/06/12 05:41:18;;;;;;;8.57;3.38;;;23.80;97.00;;;;;;5093884;28;20032;-68
2022/06/12 05:43:44;;;;;;;8.55;3.33;;;23.80;95.60;;;;;;5093757;28;20027;-67
2022/06/12 05:46:12;;;;;;;8.93;3.20;;;24.00;95.70;;;;;;5093666;28;20028;-67
2022/06/12 05:48:39;;;;;;;8.30;2.83;;;23.90;96.10;;;;;;5093598;28;20103;-67
2022/06/12 05:51:05;;;;;;;6.93;2.83;;;24.20;95.70;;;;;;5092372;28;20440;-67
2022/06/12 05:53:33;;;;;;;6.70;2.63;;;23.20;95.40;;;;;;5093786;28;20046;-67
2022/06/12 05:56:00;;;;;;;6.05;2.72;;;22.90;96.00;;;;;;5093688;28;20035;-67
2022/06/12 05:58:28;;;;;;;9.07;2.72;;;22.90;95.30;;;;;;5093895;28;20397;-68
2022/06/12 06:00:54;;;;;;;7.75;2.90;;;22.90;96.00;;;;;;5093507;28;20030;-67
2022/06/12 06:03:20;;;;;;;9.52;2.75;;;22.70;96.50;;;;;;5093441;28;20099;-68
2022/06/12 06:05:48;;;;;;;7.00;2.65;;;22.30;96.90;;;;;;5093348;28;20438;-68
2022/06/12 06:08:16;;;;;;;7.57;2.47;;;22.50;96.20;;;;;;5092167;28;20024;-67
2022/06/12 06:10:42;;;;;;;6.57;2.65;;;23.20;95.00;;;;;;5093683;28;20481;-67
2022/06/12 06:13:08;;;;;;;10.68;3.25;;;23.70;94.60;;;;;;5092451;28;20036;-67
2022/06/12 06:15:47;;;;;;;8.82;2.50;;;23.30;93.80;;;;;;5093371;28;20093;-67
2022/06/12 06:18:13;;;;;;;7.18;2.13;;;23.10;95.20;;;;;;5093525;28;20471;-67
2022/06/12 06:20:39;;;;;;;6.00;2.47;;;23.80;92.80;;;;;;5092985;28;20105;-67
2022/06/12 06:23:06;;;;;;;6.30;2.13;;;24.10;92.70;;;;;;5093213;28;20020;-67
2022/06/12 06:25:34;;;;;;;8.40;2.47;;;23.90;92.60;;;;;;5093267;28;20012;-67
2022/06/12 06:28:00;;;;;;;7.05;2.00;;;23.60;93.30;;;;;;5093493;28;20371;-68
2022/06/12 06:30:36;;;;;;;8.13;2.08;;;24.10;92.70;;;;;;5093437;28;20031;-67
2022/06/12 06:33:01;;;;;;;7.50;2.35;;;24.50;90.40;;;;;;5093184;28;20072;-68
2022/06/12 06:35:28;;;;;;;4.45;1.73;;;24.80;90.90;;;;;;5093384;28;20028;-68
2022/06/12 06:37:55;;;;;;;5.50;1.90;;;25.90;90.10;;;;;;5093378;28;20031;-68
2022/06/12 06:40:22;;;;;;;6.10;1.90;;;26.20;89.20;;;;;;5093014;28;20117;-68
2022/06/12 06:42:49;;;;;;;3.92;1.73;;;25.90;86.30;;;;;;5093307;28;20025;-68
2022/06/12 06:48:02;;;;;;;6.43;1.88;;;25.70;82.50;;;;;;5091864;28;20102;-67
2022/06/12 06:50:28;;;;;;;5.13;1.80;;;24.40;87.30;;;;;;5091717;28;20490;-68
2022/06/12 06:52:54;;;;;;;7.63;1.80;;;24.40;89.50;;;;;;5093042;28;20129;-67
2022/06/12 06:55:20;;;;;;;6.75;1.88;;;25.30;87.20;;;;;;5091786;28;20175;-67
2022/06/12 06:57:48;;;;;;;8.43;1.67;;;25.90;83.90;;;;;;5093197;28;20190;-68
2022/06/12 07:00:19;;;;;;;4.28;1.65;;;26.80;80.10;;;;;;5093123;28;20493;-67
2022/06/12 07:02:44;;;;;;;5.45;1.92;;;26.60;80.00;;;;;;5093145;28;20508;-68
2022/06/12 07:05:10;;;;;;;4.03;1.63;;;25.50;80.00;;;;;;5091610;28;20103;-67
2022/06/12 07:07:37;;;;;;;6.43;1.92;;;24.20;83.30;;;;;;5095968;28;20066;-68
2022/06/12 07:10:06;;;;;;;9.02;2.05;;;24.20;86.30;;;;;;5095468;28;20024;-67
2022/06/12 07:12:32;;;;;;;6.65;1.95;;;24.50;85.50;;;;;;5095466;28;20073;-67
2022/06/12 07:14:57;;;;;;;5.35;1.80;;;24.20;86.20;;;;;;5095218;28;20028;-67
2022/06/12 07:17:23;;;;;;;7.93;1.70;;;24.60;84.70;;;;;;5096506;28;20028;-68
2022/06/12 07:19:49;;;;;;;4.45;1.63;;;25.30;80.40;;;;;;5096168;28;20164;-68
2022/06/12 07:22:15;;;;;;;5.18;1.50;;;25.50;81.70;;;;;;5096616;28;20051;-68
2022/06/12 07:24:41;;;;;;;9.02;2.17;;;26.80;78.50;;;;;;5096667;28;20474;-68
2022/06/12 07:27:06;;;;;;;6.35;1.60;;;26.90;78.00;;;;;;5096324;28;20031;-68
2022/06/12 07:29:32;;;;;;;7.35;1.65;;;27.20;76.60;;;;;;5095179;28;20039;-68
2022/06/12 07:31:59;;;;;;;5.53;1.85;;;27.50;74.60;;;;;;5096319;28;20032;-68
2022/06/12 07:34:25;;;;;;;8.30;1.60;;;27.60;74.30;;;;;;5096495;28;20402;-67
2022/06/12 07:36:52;;;;;;;8.25;2.08;;;27.80;71.60;;;;;;5096151;28;20076;-67
2022/06/12 07:39:23;;;;;;;6.22;1.98;;;26.60;71.40;;;;;;5096009;28;20024;-67
2022/06/12 07:41:50;;;;;;;6.93;1.85;;;25.70;77.30;;;;;;5094798;28;20051;-68
2022/06/12 07:44:20;;;;;;;7.32;2.25;;;25.60;76.70;;;;;;5096350;28;20101;-68
2022/06/12 07:46:47;;;;;;;8.07;2.00;;;26.50;76.90;;;;;;5094660;28;20385;-67
2022/06/12 07:49:14;;;;;;;6.82;1.80;;;27.70;74.20;;;;;;5095930;28;20031;-67
2022/06/12 07:51:39;;;;;;;8.18;2.30;;;26.40;74.60;;;;;;5095874;28;20031;-67
2022/06/12 07:54:05;;;;;;;7.10;2.13;;;25.10;77.20;;;;;;5096069;28;20024;-67
2022/06/12 07:56:31;;;;;;;7.70;2.20;;;25.00;78.80;;;;;;5096017;28;20458;-67
2022/06/12 07:58:57;;;;;;;7.18;2.50;;;25.30;79.60;;;;;;5095820;28;20021;-67
2022/06/12 08:01:25;;;;;;;10.73;2.35;;;26.10;77.70;;;;;;5077472;28;20078;-67
2022/06/12 08:03:52;;;;;;;6.43;1.85;;;25.40;77.50;;;;;;5094465;28;20525;-67
2022/06/12 08:06:18;;;;;;;6.85;2.03;;;25.90;79.70;;;;;;5095867;28;20363;-67
2022/06/12 08:08:43;;;;;;;8.10;2.17;;;25.60;78.30;;;;;;5094293;28;20024;-67
2022/06/12 08:11:10;;;;;;;9.15;2.42;;;24.60;80.70;;;;;;5094503;28;20077;-67
2022/06/12 08:13:36;;;;;;;11.40;2.83;;;24.80;81.20;;;;;;5094051;28;20031;-67
2022/06/12 08:16:02;;;;;;;10.15;2.13;;;24.80;79.80;;;;;;5094445;28;20020;-67
2022/06/12 08:18:29;;;;;;;10.02;2.70;;;25.40;81.30;;;;;;5095303;28;20107;-67
2022/06/12 08:20:58;;;;;;;8.15;2.47;;;25.70;79.20;;;;;;5095104;28;20060;-67
2022/06/12 08:23:33;;;;;;;6.47;2.50;;;25.50;79.20;;;;;;5094002;28;20105;-68
2022/06/12 08:26:07;;;;;;;12.65;2.67;;;25.60;81.70;;;;;;5093927;28;20446;-68
2022/06/12 08:28:40;;;;;;;11.25;2.53;;;25.60;80.20;;;;;;5095379;28;20024;-68
2022/06/12 08:31:09;;;;;;;8.50;2.00;;;26.80;79.50;;;;;;5095377;28;20031;-68
2022/06/12 08:33:37;;;;;;;11.18;2.75;;;26.30;77.10;;;;;;5095153;28;20787;-68
2022/06/12 08:36:04;;;;;;;12.02;3.00;;;26.00;77.00;;;;;;5095262;28;20423;-68
2022/06/12 08:38:30;;;;;;;9.98;2.78;;;25.80;78.40;;;;;;5095242;28;20024;-68
2022/06/12 08:41:07;;;;;;;12.55;3.20;;;25.10;80.10;;;;;;5093901;28;20486;-67
2022/06/12 08:43:59;;;;;;;10.63;3.20;;;24.90;80.40;;;;;;5095110;28;20413;-67
2022/06/12 08:46:35;;;;;;;9.40;3.20;;;24.80;81.70;;;;;;5094728;28;20054;-67
2022/06/12 08:49:08;;;;;;;9.32;3.15;;;25.30;79.20;;;;;;5094860;28;20103;-68
2022/06/12 08:51:41;;;;;;;9.43;2.90;;;26.30;77.30;;;;;;5094970;28;20482;-68
2022/06/12 08:54:12;;;;;;;;;;;26.40;76.00;;;;;;5095110;28;20466;-67
2022/06/12 08:56:48;;;;;;;11.77;3.60;;;25.60;76.90;;;;;;5094625;28;19904;-67
2022/06/12 08:59:38;;;;;;;9.32;2.95;;;25.10;80.50;;;;;;5094706;28;20024;-67
2022/06/12 09:02:06;;;;;;;10.73;2.88;;;25.90;78.50;;;;;;5094479;28;20023;-67
2022/06/12 09:04:33;;;;;;;11.00;3.30;;;26.00;76.00;;;;;;5093439;28;20050;-68
2022/06/12 09:07:11;;;;;;;14.45;3.30;;;26.20;77.10;;;;;;5094657;28;20486;-68
2022/06/12 09:09:47;;;;;;;12.35;2.90;;;26.70;73.70;;;;;;5093055;28;20395;-68
2022/06/12 09:12:37;;;;;;;10.30;3.00;;;26.40;71.50;;;;;;5094578;28;20534;-67
2022/06/12 09:15:29;;;;;;;14.60;3.85;;;26.40;74.10;;;;;;5094112;28;20108;-67
2022/06/12 09:18:29;;;;;;;8.85;3.33;;;25.50;73.40;;;;;;5094099;28;20032;-67
2022/06/12 09:26:37;;;;;;;11.43;3.63;;;25.10;75.40;;;;;;5090734;28;20142;-67
2022/06/12 09:29:27;;;;;;;9.07;3.33;;;25.40;76.30;;;;;;5090673;28;20448;-67
2022/06/12 09:32:32;;;;;;;9.88;3.40;;;25.90;74.40;;;;;;5090538;28;20025;-68
2022/06/12 09:35:14;;;;;;;11.43;3.08;;;26.70;73.00;;;;;;5090460;28;20107;-67
2022/06/12 09:38:19;;;;;;;7.28;2.70;;;26.30;72.30;;;;;;5089353;28;20029;-67
2022/06/12 09:41:09;;;;;;;9.23;2.88;;;26.00;70.90;;;;;;5090370;28;20028;-67
2022/06/12 09:44:05;;;;;;;9.80;3.35;;;26.20;72.60;;;;;;5090399;28;20025;-67
2022/06/12 09:46:55;;;;;;;9.88;2.78;;;25.60;73.70;;;;;;5090305;28;20028;-67
2022/06/12 09:49:31;;;;;;;7.93;2.92;;;25.20;74.40;;;;;;5090326;28;20025;-67
2022/06/12 09:52:21;;;;;;;8.93;2.78;;;25.90;73.40;;;;;;5090346;28;20103;-68
2022/06/12 09:55:11;;;;;;;10.95;3.17;;;26.50;70.60;;;;;;5090203;28;20025;-67
2022/06/12 09:58:15;;;;;;;11.98;3.30;;;25.20;72.50;;;;;;5090146;28;20375;-67
2022/06/12 10:00:52;;;;;;;8.13;2.55;;;26.40;71.70;;;;;;5088914;28;20028;-67
2022/06/12 10:03:42;;;;;;;4.82;2.25;;;26.70;68.80;;;;;;5090125;28;20024;-68
2022/06/12 10:06:29;;;;;;;8.55;2.47;;;26.10;68.10;;;;;;5090020;28;20115;-67
2022/06/12 10:09:09;;;;;;;7.38;2.38;;;26.30;69.40;;;;;;5090238;28;20027;-67
2022/06/12 10:11:59;;;;;;;5.47;1.98;;;26.00;64.10;;;;;;5089962;28;20040;-68
2022/06/12 10:14:38;;;;;;;7.07;2.33;;;25.30;69.40;;;;;;5089781;28;20475;-68
2022/06/12 10:17:08;;;;;;;7.43;2.25;;;25.80;68.00;;;;;;5089996;28;20036;-67
2022/06/12 10:19:56;;;;;;;7.88;2.30;;;26.10;67.10;;;;;;5088661;28;20036;-69
2022/06/12 10:22:34;;;;;;;8.38;2.45;;;26.70;67.60;;;;;;5089638;28;20029;-68
2022/06/12 10:25:04;;;;;;;7.40;2.88;;;26.40;66.40;;;;;;5089546;28;20048;-68
2022/06/12 10:27:48;;;;;;;7.43;2.40;;;26.60;66.00;;;;;;5089956;28;20016;-67
2022/06/12 10:30:40;;;;;;;7.30;2.75;;;26.90;65.70;;;;;;5089727;28;20099;-67
2022/06/12 10:33:31;;;;;;;9.23;3.10;;;26.70;66.10;;;;;;5088198;28;20078;-68
2022/06/12 10:35:59;;;;;;;7.13;3.25;;;27.00;63.30;;;;;;5085293;28;20029;-67
2022/06/12 10:38:30;;;;;;;9.07;2.92;;;26.30;65.50;;;;;;5075962;28;20082;-68
2022/06/12 10:41:00;;;;;;;7.00;2.85;;;25.80;66.20;;;;;;5074767;28;20434;-67
2022/06/12 10:43:33;;;;;;;6.80;2.13;;;25.30;68.10;;;;;;5074528;28;20029;-67
2022/06/12 10:46:21;;;;;;;9.55;2.72;;;25.60;67.50;;;;;;5075914;28;20387;-67
2022/06/12 10:48:59;;;;;;;8.30;2.58;;;26.40;65.40;;;;;;5075462;28;20056;-67
2022/06/12 10:51:36;;;;;;;8.45;2.40;;;26.20;63.90;;;;;;5075940;28;20057;-68
2022/06/12 10:54:16;;;;;;;11.10;2.92;;;25.60;63.30;;;;;;5075912;28;20024;-67
2022/06/12 10:59:38;;;;;;;7.57;2.53;;;25.70;67.00;;;;;;5090853;27;20443;-68
2022/06/12 11:05:08;;;;;;;9.13;2.38;;;25.70;65.80;;;;;;5111162;27;20347;-68
2022/06/12 11:08:01;;;;;;;5.93;2.17;;;26.00;64.40;;;;;;5110995;28;20038;-68
2022/06/12 11:10:45;;;;;;;5.47;2.28;;;26.10;65.30;;;;;;5111353;28;20482;-67
2022/06/12 11:13:45;;;;;;;6.53;2.10;;;25.60;64.90;;;;;;5110106;28;20454;-67
2022/06/12 11:16:51;;;;;;;6.60;2.05;;;25.50;63.20;;;;;;5110942;28;20124;-66
2022/06/12 11:19:56;;;;;;;5.93;2.05;;;25.60;64.70;;;;;;5110758;28;20393;-68
2022/06/12 11:22:52;;;;;;;8.15;2.08;;;25.60;64.50;;;;;;5110633;28;20055;-68
2022/06/12 11:25:32;;;;;;;5.22;2.03;;;25.30;63.60;;;;;;5109418;28;20028;-68
2022/06/12 11:28:25;;;;;;;9.13;2.35;;;24.90;66.20;;;;;;5110891;28;20491;-66
2022/06/12 11:31:22;;;;;;;5.32;2.17;;;24.90;65.20;;;;;;5110585;28;20531;-68
2022/06/12 11:34:18;;;;;;;7.90;2.50;;;25.70;65.90;;;;;;5110638;28;20038;-66
2022/06/12 11:37:23;;;;;;;5.88;2.30;;;26.20;64.50;;;;;;5110619;28;20081;-66
2022/06/12 11:40:12;;;;;;;5.03;1.77;;;26.70;62.30;;;;;;5110303;28;20566;-67
2022/06/12 11:42:55;;;;;;;7.43;2.03;;;25.90;62.50;;;;;;5109258;28;20503;-66
2022/06/12 11:48:40;;;;;;;9.35;2.40;;;26.20;65.00;;;;;;5090826;28;20654;-67
2022/06/12 11:51:36;;;;;;;6.40;2.08;;;25.50;65.60;;;;;;5090984;28;20035;-67
2022/06/12 11:54:42;;;;;;;3.88;1.60;;;25.90;65.10;;;;;;5089655;28;20024;-67
2022/06/12 11:57:34;;;;;;;6.38;2.05;;;25.40;63.90;;;;;;5090741;28;20028;-68
2022/06/12 12:03:16;;;;;;;7.70;2.15;;;25.60;65.00;;;;;;5111239;27;20788;-67
2022/06/12 12:05:55;;;;;;;8.90;2.70;;;25.50;66.80;;;;;;5111158;28;20559;-67
2022/06/12 12:11:39;;;;;;;7.22;2.00;;;26.10;67.40;;;;;;5111329;27;20404;-66
2022/06/12 12:14:07;;;;;;;6.65;2.30;;;26.30;67.10;;;;;;5111592;28;20508;-66
2022/06/12 12:16:44;;;;;;;8.55;2.28;;;26.40;64.90;;;;;;5111229;28;20035;-66
2022/06/12 12:19:50;;;;;;;5.65;2.15;;;26.60;64.70;;;;;;5111155;28;20038;-66
2022/06/12 12:22:42;;;;;;;6.20;2.00;;;26.00;66.40;;;;;;5110143;28;20024;-66
2022/06/12 12:25:26;;;;;;;9.25;1.88;;;26.10;63.10;;;;;;5111320;28;20099;-66
2022/06/12 12:27:55;;;;;;;8.52;1.98;;;26.10;61.30;;;;;;5111029;28;20024;-67
2022/06/12 12:30:33;;;;;;;9.15;2.03;;;25.90;62.60;;;;;;5109875;28;20465;-67
2022/06/12 12:33:02;;;;;;;7.60;2.50;;;25.50;63.00;;;;;;5111354;28;20028;-67
2022/06/12 12:41:13;;;;;;;7.25;1.95;;;25.80;63.30;;;;;;5110563;28;20024;-67
2022/06/12 12:43:53;;;;;;;8.68;2.38;;;25.90;68.80;;;;;;5110937;28;20094;-66
2022/06/12 12:46:20;;;;;;;10.38;2.00;;;26.00;66.90;;;;;;5110885;28;20020;-67
2022/06/12 12:48:48;;;;;;;7.53;1.98;;;26.00;65.80;;;;;;5110703;28;20034;-67
2022/06/12 12:51:32;;;;;;;7.30;1.80;;;25.90;66.90;;;;;;5110486;28;20103;-66
2022/06/12 12:54:08;;;;;;;7.18;2.28;;;25.20;64.20;;;;;;5110347;28;20385;-66
2022/06/12 12:56:35;;;;;;;6.28;2.15;;;25.50;64.60;;;;;;5110566;28;20024;-66
2022/06/12 12:59:05;;;;;;;9.23;2.40;;;25.40;67.40;;;;;;5110248;28;20019;-67
2022/06/12 13:01:37;;;;;;;6.78;1.98;;;25.10;68.20;;;;;;5110193;28;20019;-67
2022/06/12 13:04:14;;;;;;;5.53;2.17;;;25.20;65.30;;;;;;5110450;28;20024;-67
2022/06/12 13:06:56;;;;;;;7.47;2.22;;;25.40;66.40;;;;;;5110176;28;20024;-67
2022/06/12 13:09:44;;;;;;;7.18;2.15;;;25.50;67.60;;;;;;5109848;28;20039;-67
2022/06/12 13:12:39;;;;;;;8.63;2.50;;;25.90;67.90;;;;;;5110267;28;20024;-67
2022/06/12 13:15:37;;;;;;;7.68;2.20;;;25.70;63.80;;;;;;5094493;28;20024;-66
2022/06/12 13:18:33;;;;;;;7.32;1.77;;;25.60;65.20;;;;;;5108509;28;20063;-66
2022/06/12 13:21:10;;;;;;;6.43;2.15;;;25.80;65.30;;;;;;5106227;28;20024;-67
2022/06/12 13:24:06;;;;;;;6.38;2.03;;;25.90;65.30;;;;;;5096425;28;20026;-67
2022/06/12 13:26:35;;;;;;;5.68;2.30;;;26.20;61.90;;;;;;5095040;28;20390;-67
2022/06/12 13:29:03;;;;;;;10.60;2.20;;;25.20;66.00;;;;;;5095888;28;20020;-67
2022/06/12 13:31:33;;;;;;;8.63;2.25;;;25.50;66.30;;;;;;5096006;28;20032;-67
2022/06/12 13:34:01;;;;;;;6.07;2.00;;;25.30;65.70;;;;;;5096257;28;20046;-66
2022/06/12 13:36:39;;;;;;;7.05;2.35;;;25.10;66.10;;;;;;5094598;28;20077;-67
2022/06/12 13:39:21;;;;;;;6.63;2.35;;;25.30;64.80;;;;;;5096107;28;20436;-68
2022/06/12 13:42:07;;;;;;;7.05;2.20;;;25.50;62.10;;;;;;5095880;28;20027;-68
2022/06/12 13:50:21;;;;;;;8.52;2.33;;;25.40;69.10;;;;;;5111161;27;20400;-67
2022/06/12 13:53:07;;;;;;;5.93;2.47;;;25.60;69.20;;;;;;5110952;28;20551;-67
2022/06/12 13:55:57;;;;;;;8.57;2.30;;;25.20;68.80;;;;;;5110949;28;20543;-67
2022/06/12 13:58:41;;;;;;;11.77;3.08;;;25.20;69.40;;;;;;5109673;28;20497;-67
2022/06/12 14:01:25;;;;;;;7.13;2.67;;;25.60;68.80;;;;;;5111177;28;20028;-68
2022/06/12 14:04:13;;;;;;;6.90;2.30;;;25.90;69.90;;;;;;5109931;28;20020;-68
2022/06/12 14:06:40;;;;;;;17.02;3.17;;;25.90;70.50;;;;;;5110750;28;20491;-67
2022/06/12 14:09:16;;;;;;;8.25;2.65;;;25.90;69.20;;;;;;5110678;28;20390;-67
2022/06/12 14:11:43;;;;;;;11.98;2.65;;;25.40;68.70;;;;;;5110636;28;20012;-67
2022/06/12 14:14:38;;;;;;;6.70;2.60;;;25.20;69.40;;;;;;5110942;28;20028;-67
2022/06/12 14:17:16;;;;;;;9.95;2.40;;;24.60;70.20;;;;;;5110581;28;20498;-67
2022/06/12 14:19:42;;;;;;;6.30;2.58;;;24.80;72.10;;;;;;5110640;28;20413;-67